Terminal Aerodrome Forecast
Issued by NWS Greer, SC

Home | Current Version | Previous Version | Text Only | Print | Product List | Glossary On
Versions: 1 2 3 4 5 6 7 8 9 10 11 12 13 14 15 16 17
000
FTUS42 KGSP 281120
TAFGSP
TAF
KGSP 281120Z 2812/2912 34003KT P6SM SKC
     FM281800 23004KT P6SM FEW200
     FM290800 00000KT P6SM FEW200=

USA.gov is the U.S. government's official web portal to all federal, state and local government web resources and services.